createdAt,value
2018-03-20T00:00:08.166Z,-2.70
2018-03-20T00:02:35.687Z,-2.70
2018-03-20T00:05:03.199Z,-2.70
2018-03-20T00:07:30.726Z,-2.70
2018-03-20T00:09:58.235Z,-2.70
2018-03-20T00:12:25.759Z,-2.80
2018-03-20T00:14:53.270Z,-2.80
2018-03-20T00:17:20.807Z,-2.90
2018-03-20T00:19:49.276Z,-2.90
2018-03-20T00:22:16.808Z,-2.90
2018-03-20T00:24:44.322Z,-3.00
2018-03-20T00:27:12.620Z,-3.00
2018-03-20T00:29:40.132Z,-3.10
2018-03-20T00:32:07.658Z,-3.10
2018-03-20T00:34:35.163Z,-3.10
2018-03-20T00:37:02.685Z,-3.20
2018-03-20T00:39:30.190Z,-3.20
2018-03-20T00:41:58.490Z,-3.30
2018-03-20T00:44:26.012Z,-3.40
2018-03-20T00:46:53.542Z,-3.30
2018-03-20T00:49:21.067Z,-3.40
2018-03-20T00:51:48.589Z,-3.40
2018-03-20T00:54:16.090Z,-3.40
2018-03-20T00:56:43.615Z,-3.40
2018-03-20T00:59:11.915Z,-3.50
2018-03-20T01:01:40.218Z,-3.50
2018-03-20T01:04:07.714Z,-3.60
2018-03-20T01:06:35.214Z,-3.50
2018-03-20T01:09:03.505Z,-3.60
2018-03-20T01:11:31.014Z,-3.60
2018-03-20T01:13:58.536Z,-3.60
2018-03-20T01:16:26.046Z,-3.60
2018-03-20T01:18:53.570Z,-3.60
2018-03-20T01:21:21.086Z,-3.60
2018-03-20T01:23:49.379Z,-3.70
2018-03-20T01:26:16.885Z,-3.70
2018-03-20T01:28:44.433Z,-3.70
2018-03-20T01:31:11.942Z,-3.70
2018-03-20T01:33:40.230Z,-3.70
2018-03-20T01:36:07.751Z,-3.80
2018-03-20T01:38:35.283Z,-3.70
2018-03-20T01:41:02.799Z,-3.70
2018-03-20T01:43:31.090Z,-3.80
2018-03-20T01:45:59.359Z,-3.80
2018-03-20T01:48:27.644Z,-3.80
2018-03-20T01:50:55.914Z,-3.80
2018-03-20T01:53:24.217Z,-3.90
2018-03-20T01:55:51.721Z,-3.90
2018-03-20T01:58:19.250Z,-3.90
2018-03-20T02:00:46.762Z,-3.90
2018-03-20T02:03:15.053Z,-4.00
2018-03-20T02:05:43.328Z,-4.00
2018-03-20T02:08:11.620Z,-4.10
2018-03-20T02:10:39.141Z,-4.10
2018-03-20T02:13:06.665Z,-4.10
2018-03-20T02:15:34.186Z,-4.10
2018-03-20T02:18:02.473Z,-4.20
2018-03-20T02:20:29.986Z,-4.20
2018-03-20T02:22:57.516Z,-4.20
2018-03-20T02:25:25.030Z,-4.20
2018-03-20T02:27:53.327Z,-4.40
2018-03-20T02:30:20.843Z,-4.40
2018-03-20T02:32:48.383Z,-4.40
2018-03-20T02:35:15.901Z,-4.40
2018-03-20T02:37:43.425Z,-4.50
2018-03-20T02:40:10.930Z,-4.50
2018-03-20T02:42:38.479Z,-4.50
2018-03-20T02:45:06.788Z,-4.50
2018-03-20T02:47:34.310Z,-4.60
2018-03-20T02:50:02.603Z,-4.60
2018-03-20T02:52:30.879Z,-4.60
2018-03-20T02:54:58.407Z,-4.70
2018-03-20T02:57:25.937Z,-4.60
2018-03-20T02:59:53.468Z,-4.70
2018-03-20T03:02:20.983Z,-4.70
2018-03-20T03:04:48.519Z,-4.70
2018-03-20T03:07:16.034Z,-4.80
2018-03-20T03:09:44.322Z,-4.80
2018-03-20T03:12:11.839Z,-4.90
2018-03-20T03:14:39.370Z,-4.90
2018-03-20T03:17:06.887Z,-4.90
2018-03-20T03:19:35.199Z,-4.90
2018-03-20T03:22:02.722Z,-5.00
2018-03-20T03:24:31.016Z,-5.00
2018-03-20T03:26:59.291Z,-5.00
2018-03-20T03:29:26.818Z,-5.10
2018-03-20T03:31:54.333Z,-5.10
2018-03-20T03:34:21.861Z,-5.10
2018-03-20T03:36:50.143Z,-5.10
2018-03-20T03:39:17.675Z,-5.20
2018-03-20T03:41:45.186Z,-5.20
2018-03-20T03:44:12.723Z,-5.20
2018-03-20T03:46:40.231Z,-5.20
2018-03-20T03:49:07.787Z,-5.20
2018-03-20T03:51:35.298Z,-5.20
2018-03-20T03:54:03.591Z,-5.20
2018-03-20T03:56:31.100Z,-5.30
2018-03-20T03:58:58.630Z,-5.20
2018-03-20T04:01:26.167Z,-5.20
2018-03-20T04:03:54.450Z,-5.20
2018-03-20T04:06:21.959Z,-5.30
2018-03-20T04:08:49.482Z,-5.20
2018-03-20T04:11:16.987Z,-5.20
2018-03-20T04:13:44.522Z,-5.20
2018-03-20T04:16:12.027Z,-5.20
2018-03-20T04:18:40.327Z,-5.10
2018-03-20T04:21:07.839Z,-5.20
2018-03-20T04:23:35.353Z,-5.10
2018-03-20T04:26:02.878Z,-5.10
2018-03-20T04:28:31.156Z,-5.10
2018-03-20T04:30:58.682Z,-5.10
2018-03-20T04:33:26.186Z,-5.10
2018-03-20T04:35:54.493Z,-5.10
2018-03-20T04:38:21.998Z,-5.10
2018-03-20T04:40:49.527Z,-5.10
2018-03-20T04:43:17.043Z,-5.10
2018-03-20T04:45:45.335Z,-5.10
2018-03-20T04:48:12.855Z,-5.10
2018-03-20T04:50:40.386Z,-5.00
2018-03-20T04:53:07.899Z,-5.00
2018-03-20T04:55:35.439Z,-5.00
2018-03-20T04:58:02.947Z,-5.00
2018-03-20T05:00:30.479Z,-5.00
2018-03-20T05:02:58.762Z,-5.00
2018-03-20T05:05:26.287Z,-5.10
2018-03-20T05:07:53.794Z,-5.00
2018-03-20T05:10:21.325Z,-5.10
2018-03-20T05:12:49.608Z,-5.20
2018-03-20T05:15:17.147Z,-5.20
2018-03-20T05:17:46.450Z,-5.20
2018-03-20T05:20:19.648Z,-5.20
2018-03-20T05:22:59.863Z,-5.20
2018-03-20T05:25:27.390Z,-5.20
2018-03-20T05:27:54.919Z,-5.20
2018-03-20T05:30:22.455Z,-5.20
2018-03-20T05:32:49.977Z,-5.20
2018-03-20T05:35:17.502Z,-5.20
2018-03-20T05:37:45.017Z,-5.20
2018-03-20T05:40:12.547Z,-5.20
2018-03-20T05:42:40.823Z,-5.20
2018-03-20T05:45:09.122Z,-5.30
2018-03-20T05:50:53.449Z,-5.20
2018-03-20T05:53:21.734Z,-5.20
2018-03-20T05:55:49.298Z,-5.30
2018-03-20T05:58:16.828Z,-5.30
2018-03-20T06:00:45.138Z,-5.20
2018-03-20T06:03:12.651Z,-5.30
2018-03-20T06:05:40.190Z,-5.30
2018-03-20T06:08:07.715Z,-5.30
2018-03-20T06:10:35.283Z,-5.20
2018-03-20T06:13:02.828Z,-5.20
2018-03-20T06:15:31.155Z,-5.20
2018-03-20T06:17:58.655Z,-5.20
2018-03-20T06:20:26.983Z,-5.20
2018-03-20T06:22:54.531Z,-5.20
2018-03-20T06:25:22.084Z,-5.20
2018-03-20T06:27:49.628Z,-5.20
2018-03-20T06:30:17.167Z,-5.20
2018-03-20T06:32:45.508Z,-5.20
2018-03-20T06:35:13.052Z,-5.30
2018-03-20T06:37:40.620Z,-5.20
2018-03-20T06:40:08.179Z,-5.10
2018-03-20T06:42:35.711Z,-5.10
2018-03-20T06:45:03.236Z,-5.10
2018-03-20T06:47:31.551Z,-5.10
2018-03-20T06:49:59.091Z,-5.20
2018-03-20T06:52:27.476Z,-5.10
2018-03-20T06:54:55.027Z,-5.20
2018-03-20T06:57:23.354Z,-5.00
2018-03-20T06:59:50.908Z,-5.10
2018-03-20T07:02:18.443Z,-5.00
2018-03-20T07:04:46.754Z,-4.90
2018-03-20T07:07:15.230Z,-5.00
2018-03-20T07:09:42.752Z,-4.80
2018-03-20T07:12:10.331Z,-4.80
2018-03-20T07:14:37.863Z,-4.70
2018-03-20T07:17:06.186Z,-4.60
2018-03-20T07:19:33.728Z,-4.60
2018-03-20T07:22:01.270Z,-4.50
2018-03-20T07:24:29.555Z,-4.30
2018-03-20T07:26:57.100Z,-4.40
2018-03-20T07:29:25.408Z,-4.10
2018-03-20T07:31:53.747Z,-4.10
2018-03-20T07:34:21.280Z,-4.10
2018-03-20T07:36:48.823Z,-4.00
2018-03-20T07:39:16.360Z,-3.90
2018-03-20T07:41:44.649Z,-3.80
2018-03-20T07:44:12.204Z,-3.80
2018-03-20T07:46:39.729Z,-3.70
2018-03-20T07:49:07.279Z,-3.60
2018-03-20T07:51:34.808Z,-3.50
2018-03-20T07:54:02.339Z,-3.50
2018-03-20T07:56:30.638Z,-3.30
2018-03-20T07:58:58.179Z,-3.30
2018-03-20T08:01:26.463Z,-3.10
2018-03-20T08:03:54.009Z,-3.20
2018-03-20T08:06:22.303Z,-3.00
2018-03-20T08:08:49.852Z,-3.00
2018-03-20T08:11:18.138Z,-2.60
2018-03-20T08:13:45.695Z,-2.70
2018-03-20T08:16:13.970Z,-2.40
2018-03-20T08:18:41.490Z,-2.40
2018-03-20T08:21:09.015Z,-2.20
2018-03-20T08:23:36.568Z,-2.20
2018-03-20T08:26:04.087Z,-2.10
2018-03-20T08:28:31.623Z,-2.00
2018-03-20T08:30:59.130Z,-2.00
2018-03-20T08:33:26.676Z,-2.00
2018-03-20T08:35:54.195Z,-1.90
2018-03-20T08:38:22.494Z,-1.60
2018-03-20T08:40:50.002Z,-1.70
2018-03-20T08:43:17.531Z,-1.40
2018-03-20T08:45:45.038Z,-1.30
2018-03-20T08:48:13.335Z,-1.30
2018-03-20T08:50:40.856Z,-1.30
2018-03-20T08:53:08.395Z,-1.20
2018-03-20T08:55:35.912Z,-1.20
2018-03-20T08:58:03.447Z,-1.10
2018-03-20T09:00:30.976Z,-1.00
2018-03-20T09:02:58.520Z,-1.00
2018-03-20T09:05:26.037Z,-0.90
2018-03-20T09:07:54.318Z,-0.80
2018-03-20T09:10:22.619Z,-0.80
2018-03-20T09:12:50.127Z,-0.90
2018-03-20T09:15:17.660Z,-0.80
2018-03-20T09:17:45.166Z,-0.70
2018-03-20T09:20:12.727Z,-0.60
2018-03-20T09:22:40.239Z,-0.50
2018-03-20T09:25:07.766Z,-0.50
2018-03-20T09:27:35.298Z,-0.50
2018-03-20T09:30:02.829Z,-0.60
2018-03-20T09:32:31.114Z,-0.40
2018-03-20T09:34:59.407Z,-0.30
2018-03-20T09:37:26.915Z,-0.40
2018-03-20T09:39:54.446Z,-0.30
2018-03-20T09:42:21.966Z,-0.30
2018-03-20T09:44:50.271Z,-0.30
2018-03-20T09:47:17.782Z,-0.40
2018-03-20T09:49:45.331Z,-0.40
2018-03-20T09:52:12.848Z,-0.30
2018-03-20T09:54:40.404Z,-0.20
2018-03-20T09:57:07.915Z,-0.20
2018-03-20T09:59:35.457Z,-0.10
2018-03-20T10:02:03.006Z,0.00
2018-03-20T10:04:30.555Z,0.00
2018-03-20T10:06:58.055Z,0.10
2018-03-20T10:09:25.619Z,0.20
2018-03-20T10:11:53.102Z,0.30
2018-03-20T10:14:21.394Z,0.20
2018-03-20T10:16:48.914Z,0.10
2018-03-20T10:19:16.438Z,0.20
2018-03-20T10:21:43.941Z,0.30
2018-03-20T10:24:11.462Z,0.30
2018-03-20T10:26:38.974Z,0.30
2018-03-20T10:29:07.270Z,0.30
2018-03-20T10:31:34.798Z,0.30
2018-03-20T10:34:02.319Z,0.30
2018-03-20T10:36:29.833Z,0.30
2018-03-20T10:38:57.366Z,0.30
2018-03-20T10:41:25.235Z,0.30
2018-03-20T10:43:52.790Z,0.30
2018-03-20T10:46:20.284Z,0.30
2018-03-20T10:48:48.555Z,0.40
2018-03-20T10:51:16.088Z,0.40
2018-03-20T10:53:43.591Z,0.40
2018-03-20T10:56:11.118Z,0.40
2018-03-20T10:58:38.638Z,0.40
2018-03-20T11:01:06.158Z,0.50
2018-03-20T11:03:33.666Z,0.50
2018-03-20T11:06:01.195Z,0.50
2018-03-20T11:08:28.704Z,0.50
2018-03-20T11:10:56.232Z,0.50
2018-03-20T11:13:23.750Z,0.60
2018-03-20T11:15:51.283Z,0.60
2018-03-20T11:18:18.785Z,0.70
2018-03-20T11:20:46.310Z,0.70
2018-03-20T11:23:13.820Z,0.70
2018-03-20T11:25:41.351Z,0.80
2018-03-20T11:28:09.627Z,1.10
2018-03-20T11:30:37.154Z,1.10
2018-03-20T11:33:04.658Z,1.20
2018-03-20T11:35:32.938Z,1.30
2018-03-20T11:38:01.215Z,1.40
2018-03-20T11:40:28.729Z,1.40
2018-03-20T11:42:56.235Z,1.50
2018-03-20T11:45:24.514Z,1.60
2018-03-20T11:47:52.027Z,1.50
2018-03-20T11:50:19.546Z,1.60
2018-03-20T11:52:47.044Z,1.60
2018-03-20T11:55:14.562Z,1.50
2018-03-20T11:57:42.074Z,1.60
2018-03-20T12:00:09.600Z,1.50
2018-03-20T12:02:37.102Z,1.40
2018-03-20T12:05:04.627Z,1.30
2018-03-20T12:07:32.123Z,1.20
2018-03-20T12:09:59.643Z,1.20
2018-03-20T12:12:27.155Z,1.20
2018-03-20T12:14:55.444Z,1.20
2018-03-20T12:17:22.951Z,1.10
2018-03-20T12:19:50.512Z,1.10
2018-03-20T12:22:18.012Z,1.10
2018-03-20T12:24:46.278Z,1.00
2018-03-20T12:27:14.570Z,1.00
2018-03-20T12:29:42.836Z,1.00
2018-03-20T12:32:10.353Z,0.90
2018-03-20T12:34:37.859Z,1.00
2018-03-20T12:37:05.383Z,1.00
2018-03-20T12:39:32.890Z,0.90
2018-03-20T12:42:01.192Z,0.80
2018-03-20T12:44:28.694Z,0.80
2018-03-20T12:46:56.214Z,0.80
2018-03-20T12:49:23.719Z,0.70
2018-03-20T12:51:51.242Z,0.70
2018-03-20T12:54:18.743Z,0.60
2018-03-20T12:56:46.258Z,0.60
2018-03-20T12:59:13.765Z,0.60
2018-03-20T13:01:41.283Z,0.60
2018-03-20T13:04:08.786Z,0.50
2018-03-20T13:06:36.310Z,0.50
2018-03-20T13:09:03.817Z,0.40
2018-03-20T13:11:32.101Z,0.30
2018-03-20T13:14:00.363Z,0.30
2018-03-20T13:16:28.659Z,0.10
2018-03-20T13:18:56.938Z,-0.10
2018-03-20T13:21:25.226Z,-0.30
2018-03-20T13:23:52.740Z,-0.30
2018-03-20T13:26:20.276Z,-0.40
2018-03-20T13:28:47.798Z,-0.70
2018-03-20T13:31:15.322Z,-0.80
2018-03-20T13:33:42.826Z,-0.90
2018-03-20T13:36:10.351Z,-0.90
2018-03-20T13:38:37.864Z,-1.00
2018-03-20T13:41:05.386Z,-1.00
2018-03-20T13:43:33.662Z,-0.80
2018-03-20T13:46:01.960Z,-0.90
2018-03-20T13:48:29.466Z,-0.90
2018-03-20T13:50:58.679Z,-0.80
2018-03-20T13:53:28.103Z,-1.00
2018-03-20T13:55:56.412Z,-1.10
2018-03-20T13:58:23.918Z,-1.20
2018-03-20T14:00:51.430Z,-1.20
2018-03-20T14:03:18.954Z,-1.20
2018-03-20T14:05:46.458Z,-1.20
2018-03-20T14:08:13.981Z,-1.20
2018-03-20T14:10:42.260Z,-1.20
2018-03-20T14:13:09.806Z,-1.30
2018-03-20T14:15:38.097Z,-1.20
2018-03-20T14:18:07.242Z,-1.10
2018-03-20T14:20:35.176Z,-1.20
2018-03-20T14:23:02.683Z,-1.10
2018-03-20T14:25:30.212Z,-1.10
2018-03-20T14:27:57.735Z,-1.10
2018-03-20T14:30:25.242Z,-1.10
2018-03-20T14:32:53.713Z,-1.10
2018-03-20T14:35:21.221Z,-1.10
2018-03-20T14:37:48.750Z,-1.10
2018-03-20T14:40:16.262Z,-1.00
2018-03-20T14:42:44.563Z,-1.00
2018-03-20T14:45:12.074Z,-1.00
2018-03-20T14:47:39.586Z,-0.90
2018-03-20T14:50:07.099Z,-0.90
2018-03-20T14:52:34.621Z,-0.90
2018-03-20T14:55:02.124Z,-0.90
2018-03-20T14:57:29.656Z,-0.90
2018-03-20T14:59:57.208Z,-0.80
2018-03-20T15:02:24.766Z,-0.90
2018-03-20T15:04:52.275Z,-0.90
2018-03-20T15:07:19.804Z,-0.90
2018-03-20T15:09:47.357Z,-0.90
2018-03-20T15:12:14.882Z,-0.90
2018-03-20T15:14:42.407Z,-0.90
2018-03-20T15:17:09.939Z,-0.90
2018-03-20T15:19:37.576Z,-0.90
2018-03-20T15:22:05.116Z,-0.90
2018-03-20T15:24:32.630Z,-0.90
2018-03-20T15:27:00.226Z,-1.00
2018-03-20T15:29:28.559Z,-1.00
2018-03-20T15:31:56.071Z,-1.00
2018-03-20T15:34:23.611Z,-1.00
2018-03-20T15:36:51.128Z,-1.00
2018-03-20T15:39:19.188Z,-1.00
2018-03-20T15:41:47.477Z,-1.00
2018-03-20T15:44:15.018Z,-1.00
2018-03-20T15:46:42.601Z,-0.90
2018-03-20T15:49:12.090Z,-0.90
2018-03-20T15:51:40.640Z,-0.80
2018-03-20T15:54:08.293Z,-0.90
2018-03-20T15:56:35.955Z,-0.90
2018-03-20T15:59:03.474Z,-1.00
2018-03-20T16:01:31.840Z,-1.00
2018-03-20T16:03:59.398Z,-1.10
2018-03-20T16:06:26.912Z,-1.00
2018-03-20T16:08:56.534Z,-1.10
2018-03-20T16:11:24.177Z,-1.10
2018-03-20T16:13:51.994Z,-1.10
2018-03-20T16:16:19.519Z,-1.10
2018-03-20T16:18:47.051Z,-1.10
2018-03-20T16:21:14.569Z,-1.20
2018-03-20T16:23:42.103Z,-1.20
2018-03-20T16:26:09.623Z,-1.20
2018-03-20T16:28:37.159Z,-1.30
2018-03-20T16:31:04.679Z,-1.30
2018-03-20T16:33:32.218Z,-1.30
2018-03-20T16:35:59.730Z,-1.30
2018-03-20T16:38:27.264Z,-1.30
2018-03-20T16:40:54.771Z,-1.20
2018-03-20T16:43:23.062Z,-1.20
2018-03-20T16:45:50.619Z,-1.30
2018-03-20T16:48:18.111Z,-1.20
2018-03-20T16:50:46.390Z,-1.30
2018-03-20T16:53:13.924Z,-1.40
2018-03-20T16:55:41.442Z,-1.30
2018-03-20T16:58:08.981Z,-1.30
2018-03-20T17:00:36.499Z,-1.30
2018-03-20T17:03:04.031Z,-1.30
2018-03-20T17:05:31.545Z,-1.40
2018-03-20T17:07:59.070Z,-1.40
2018-03-20T17:10:27.359Z,-1.40
2018-03-20T17:12:55.636Z,-1.40
2018-03-20T17:15:23.163Z,-1.50
2018-03-20T17:17:50.680Z,-1.40
2018-03-20T17:20:18.238Z,-1.40
2018-03-20T17:22:45.799Z,-1.50
2018-03-20T17:25:13.302Z,-1.50
2018-03-20T17:27:40.815Z,-1.50
2018-03-20T17:30:08.351Z,-1.50
2018-03-20T17:32:35.874Z,-1.50
2018-03-20T17:35:04.167Z,-1.50
2018-03-20T17:37:31.714Z,-1.60
2018-03-20T17:40:00.023Z,-1.50
2018-03-20T17:42:27.548Z,-1.50
2018-03-20T17:44:55.850Z,-1.50
2018-03-20T17:47:23.368Z,-1.50
2018-03-20T17:49:51.676Z,-1.50
2018-03-20T17:52:19.194Z,-1.60
2018-03-20T17:54:46.727Z,-1.50
2018-03-20T17:57:14.239Z,-1.50
2018-03-20T17:59:42.531Z,-1.50
2018-03-20T18:02:10.821Z,-1.50
2018-03-20T18:04:38.359Z,-1.50
2018-03-20T18:07:06.633Z,-1.50
2018-03-20T18:09:34.926Z,-1.50
2018-03-20T18:12:02.446Z,-1.50
2018-03-20T18:14:29.976Z,-1.50
2018-03-20T18:16:57.495Z,-1.40
2018-03-20T18:19:25.798Z,-1.40
2018-03-20T18:21:53.315Z,-1.50
2018-03-20T18:24:20.861Z,-1.40
2018-03-20T18:26:48.370Z,-1.40
2018-03-20T18:29:15.898Z,-1.40
2018-03-20T18:31:44.183Z,-1.40
2018-03-20T18:34:12.479Z,-1.40
2018-03-20T18:36:39.995Z,-1.50
2018-03-20T18:39:07.523Z,-1.40
2018-03-20T18:41:35.035Z,-1.40
2018-03-20T18:44:03.332Z,-1.40
2018-03-20T18:46:30.868Z,-1.50
2018-03-20T18:48:59.155Z,-1.40
2018-03-20T18:51:27.457Z,-1.40
2018-03-20T18:53:54.966Z,-1.50
2018-03-20T18:56:22.500Z,-1.40
2018-03-20T18:58:50.007Z,-1.40
2018-03-20T19:01:17.540Z,-1.40
2018-03-20T19:03:45.050Z,-1.40
2018-03-20T19:06:12.619Z,-1.40
2018-03-20T19:08:40.898Z,-1.40
2018-03-20T19:11:08.431Z,-1.50
2018-03-20T19:13:36.710Z,-1.40
2018-03-20T19:16:04.250Z,-1.50
2018-03-20T19:18:31.754Z,-1.50
2018-03-20T19:20:59.291Z,-1.40
2018-03-20T19:23:27.571Z,-1.40
2018-03-20T19:25:55.870Z,-1.40
2018-03-20T19:28:23.387Z,-1.50
2018-03-20T19:30:50.917Z,-1.40
2018-03-20T19:33:18.439Z,-1.40
2018-03-20T19:35:45.970Z,-1.40
2018-03-20T19:38:13.483Z,-1.40
2018-03-20T19:40:41.779Z,-1.40
2018-03-20T19:43:09.293Z,-1.50
2018-03-20T19:45:36.832Z,-1.40
2018-03-20T19:48:05.128Z,-1.40
2018-03-20T19:50:33.416Z,-1.40
2018-03-20T19:53:00.939Z,-1.50
2018-03-20T19:55:28.470Z,-1.40
2018-03-20T19:57:55.975Z,-1.40
2018-03-20T20:00:24.275Z,-1.40
2018-03-20T20:02:51.790Z,-1.50
2018-03-20T20:05:19.328Z,-1.40
2018-03-20T20:07:46.838Z,-1.40
2018-03-20T20:10:15.128Z,-1.40
2018-03-20T20:12:42.630Z,-1.40
2018-03-20T20:15:10.176Z,-1.40
2018-03-20T20:17:37.693Z,-1.40
2018-03-20T20:20:06.006Z,-1.30
2018-03-20T20:22:33.514Z,-1.40
2018-03-20T20:25:01.027Z,-1.30
2018-03-20T20:27:28.550Z,-1.30
2018-03-20T20:29:56.823Z,-1.30
2018-03-20T20:32:25.115Z,-1.30
2018-03-20T20:34:52.627Z,-1.30
2018-03-20T20:37:20.154Z,-1.30
2018-03-20T20:39:47.667Z,-1.30
2018-03-20T20:42:15.215Z,-1.30
2018-03-20T20:44:42.728Z,-1.30
2018-03-20T20:47:10.258Z,-1.30
2018-03-20T20:49:38.555Z,-1.30
2018-03-20T20:52:06.090Z,-1.40
2018-03-20T20:54:33.602Z,-1.30
2018-03-20T20:57:01.131Z,-1.30
2018-03-20T20:59:29.404Z,-1.20
2018-03-20T21:01:57.698Z,-1.30
2018-03-20T21:04:25.218Z,-1.30
2018-03-20T21:06:52.742Z,-1.30
2018-03-20T21:09:20.255Z,-1.30
2018-03-20T21:11:48.563Z,-1.30
2018-03-20T21:14:16.075Z,-1.30
2018-03-20T21:16:43.603Z,-1.30
2018-03-20T21:19:11.118Z,-1.30
2018-03-20T21:21:39.410Z,-1.30
2018-03-20T21:24:06.929Z,-1.30
2018-03-20T21:26:34.458Z,-1.30
2018-03-20T21:29:01.979Z,-1.30
2018-03-20T21:31:30.739Z,-1.30
2018-03-20T21:33:58.255Z,-1.30
2018-03-20T21:36:25.791Z,-1.30
2018-03-20T21:38:53.298Z,-1.30
2018-03-20T21:41:21.830Z,-1.30
2018-03-20T21:43:49.355Z,-1.30
2018-03-20T21:46:16.879Z,-1.30
2018-03-20T21:48:44.388Z,-1.30
2018-03-20T21:51:11.906Z,-1.30
2018-03-20T21:53:39.438Z,-1.30
2018-03-20T21:56:07.422Z,-1.20
2018-03-20T21:58:34.959Z,-1.30
2018-03-20T22:01:03.243Z,-1.20
2018-03-20T22:03:31.530Z,-1.20
2018-03-20T22:05:59.080Z,-1.30
2018-03-20T22:08:27.378Z,-1.20
2018-03-20T22:10:54.887Z,-1.30
2018-03-20T22:13:22.416Z,-1.20
2018-03-20T22:15:49.930Z,-1.20
2018-03-20T22:18:18.228Z,-1.20
2018-03-20T22:20:45.738Z,-1.30
2018-03-20T22:23:13.286Z,-1.20
2018-03-20T22:25:40.803Z,-1.20
2018-03-20T22:28:08.336Z,-1.20
2018-03-20T22:30:35.847Z,-1.20
2018-03-20T22:33:03.379Z,-1.20
2018-03-20T22:35:30.891Z,-1.20
2018-03-20T22:37:58.427Z,-1.20
2018-03-20T22:40:25.936Z,-1.20
2018-03-20T22:42:54.230Z,-1.20
2018-03-20T22:45:21.736Z,-1.20
2018-03-20T22:47:49.266Z,-1.20
2018-03-20T22:50:16.776Z,-1.20
2018-03-20T22:52:44.313Z,-1.20
2018-03-20T22:55:11.826Z,-1.20
2018-03-20T22:57:39.366Z,-1.20
2018-03-20T23:00:06.885Z,-1.20
2018-03-20T23:02:34.412Z,-1.20
2018-03-20T23:05:01.927Z,-1.20
2018-03-20T23:07:29.457Z,-1.20
2018-03-20T23:09:56.971Z,-1.30
2018-03-20T23:12:25.270Z,-1.30
2018-03-20T23:14:52.795Z,-1.30
2018-03-20T23:17:20.325Z,-1.20
2018-03-20T23:19:47.831Z,-1.30
2018-03-20T23:22:16.142Z,-1.30
2018-03-20T23:24:43.650Z,-1.30
2018-03-20T23:27:11.167Z,-1.20
2018-03-20T23:29:38.715Z,-1.20
2018-03-20T23:32:06.226Z,-1.30
2018-03-20T23:34:33.747Z,-1.20
2018-03-20T23:37:01.263Z,-1.20
2018-03-20T23:39:28.791Z,-1.20
2018-03-20T23:41:56.297Z,-1.20
2018-03-20T23:44:23.832Z,-1.20
2018-03-20T23:46:51.352Z,-1.20
2018-03-20T23:49:18.884Z,-1.20
2018-03-20T23:51:47.156Z,-1.30
2018-03-20T23:54:15.462Z,-1.30
2018-03-20T23:56:42.976Z,-1.30
2018-03-20T23:59:10.503Z,-1.20
